sensor_id;sensor_type;location;lat;lon;timestamp;temperature;humidity
17370;DHT22;8802;52.402;4.920;2022-07-06T00:01:53;19.00;77.00
17370;DHT22;8802;52.402;4.920;2022-07-06T00:04:21;19.00;77.20
17370;DHT22;8802;52.402;4.920;2022-07-06T00:06:48;19.00;76.90
17370;DHT22;8802;52.402;4.920;2022-07-06T00:09:15;19.00;77.30
17370;DHT22;8802;52.402;4.920;2022-07-06T00:11:42;19.00;77.40
17370;DHT22;8802;52.402;4.920;2022-07-06T00:14:09;19.00;76.90
17370;DHT22;8802;52.402;4.920;2022-07-06T00:16:36;19.00;77.40
17370;DHT22;8802;52.402;4.920;2022-07-06T00:19:03;18.90;77.70
17370;DHT22;8802;52.402;4.920;2022-07-06T00:21:31;18.90;77.10
17370;DHT22;8802;52.402;4.920;2022-07-06T00:23:58;18.90;77.80
17370;DHT22;8802;52.402;4.920;2022-07-06T00:26:25;18.90;76.80
17370;DHT22;8802;52.402;4.920;2022-07-06T00:28:52;18.90;76.70
17370;DHT22;8802;52.402;4.920;2022-07-06T00:31:18;19.00;76.80
17370;DHT22;8802;52.402;4.920;2022-07-06T00:33:45;18.90;76.60
17370;DHT22;8802;52.402;4.920;2022-07-06T00:36:12;18.90;76.70
17370;DHT22;8802;52.402;4.920;2022-07-06T00:38:40;18.90;76.40
17370;DHT22;8802;52.402;4.920;2022-07-06T00:41:07;18.80;76.90
17370;DHT22;8802;52.402;4.920;2022-07-06T00:43:48;18.90;76.60
17370;DHT22;8802;52.402;4.920;2022-07-06T00:46:15;18.80;76.90
17370;DHT22;8802;52.402;4.920;2022-07-06T00:48:42;18.80;76.60
17370;DHT22;8802;52.402;4.920;2022-07-06T00:51:09;18.80;76.80
17370;DHT22;8802;52.402;4.920;2022-07-06T00:53:37;18.80;76.80
17370;DHT22;8802;52.402;4.920;2022-07-06T00:56:05;18.80;76.70
17370;DHT22;8802;52.402;4.920;2022-07-06T00:58:33;18.80;76.70
17370;DHT22;8802;52.402;4.920;2022-07-06T01:01:00;18.80;77.40
17370;DHT22;8802;52.402;4.920;2022-07-06T01:03:27;18.80;77.10
17370;DHT22;8802;52.402;4.920;2022-07-06T01:05:54;18.80;76.70
17370;DHT22;8802;52.402;4.920;2022-07-06T01:08:21;18.80;77.20
17370;DHT22;8802;52.402;4.920;2022-07-06T01:10:48;18.80;77.40
17370;DHT22;8802;52.402;4.920;2022-07-06T01:13:16;18.80;77.30
17370;DHT22;8802;52.402;4.920;2022-07-06T01:15:43;18.80;77.60
17370;DHT22;8802;52.402;4.920;2022-07-06T01:18:11;18.80;77.70
17370;DHT22;8802;52.402;4.920;2022-07-06T01:20:39;18.80;77.40
17370;DHT22;8802;52.402;4.920;2022-07-06T01:23:06;18.80;77.30
17370;DHT22;8802;52.402;4.920;2022-07-06T01:25:33;18.80;77.70
17370;DHT22;8802;52.402;4.920;2022-07-06T01:28:00;18.80;77.60
17370;DHT22;8802;52.402;4.920;2022-07-06T01:30:27;18.80;77.70
17370;DHT22;8802;52.402;4.920;2022-07-06T01:32:54;18.80;77.60
17370;DHT22;8802;52.402;4.920;2022-07-06T01:35:22;18.80;77.40
17370;DHT22;8802;52.402;4.920;2022-07-06T01:37:52;18.80;77.40
17370;DHT22;8802;52.402;4.920;2022-07-06T01:40:19;18.80;77.50
17370;DHT22;8802;52.402;4.920;2022-07-06T01:42:45;18.90;77.20
17370;DHT22;8802;52.402;4.920;2022-07-06T01:45:12;18.90;77.30
17370;DHT22;8802;52.402;4.920;2022-07-06T01:47:39;18.90;77.50
17370;DHT22;8802;52.402;4.920;2022-07-06T01:50:08;18.90;77.40
17370;DHT22;8802;52.402;4.920;2022-07-06T01:52:35;18.90;77.60
17370;DHT22;8802;52.402;4.920;2022-07-06T01:55:03;18.90;77.90
17370;DHT22;8802;52.402;4.920;2022-07-06T01:57:30;18.90;78.00
17370;DHT22;8802;52.402;4.920;2022-07-06T01:59:57;19.00;77.80
17370;DHT22;8802;52.402;4.920;2022-07-06T02:02:24;19.00;77.90
17370;DHT22;8802;52.402;4.920;2022-07-06T02:04:51;19.00;78.60
17370;DHT22;8802;52.402;4.920;2022-07-06T02:07:18;18.90;77.70
17370;DHT22;8802;52.402;4.920;2022-07-06T02:09:44;19.00;77.40
17370;DHT22;8802;52.402;4.920;2022-07-06T02:12:12;19.00;77.70
17370;DHT22;8802;52.402;4.920;2022-07-06T02:14:39;19.00;78.10
17370;DHT22;8802;52.402;4.920;2022-07-06T02:17:06;19.00;76.90
17370;DHT22;8802;52.402;4.920;2022-07-06T02:19:33;19.00;77.20
17370;DHT22;8802;52.402;4.920;2022-07-06T02:22:00;19.00;77.20
17370;DHT22;8802;52.402;4.920;2022-07-06T02:24:26;19.00;77.10
17370;DHT22;8802;52.402;4.920;2022-07-06T02:26:53;19.00;76.90
17370;DHT22;8802;52.402;4.920;2022-07-06T02:29:22;19.00;76.80
17370;DHT22;8802;52.402;4.920;2022-07-06T02:31:48;19.00;77.20
17370;DHT22;8802;52.402;4.920;2022-07-06T02:34:15;19.00;77.00
17370;DHT22;8802;52.402;4.920;2022-07-06T02:36:42;19.00;76.90
17370;DHT22;8802;52.402;4.920;2022-07-06T02:39:09;19.00;76.90
17370;DHT22;8802;52.402;4.920;2022-07-06T02:41:35;19.00;77.20
17370;DHT22;8802;52.402;4.920;2022-07-06T02:44:03;19.00;77.40
17370;DHT22;8802;52.402;4.920;2022-07-06T02:46:31;19.00;77.60
17370;DHT22;8802;52.402;4.920;2022-07-06T02:48:58;19.00;77.20
17370;DHT22;8802;52.402;4.920;2022-07-06T02:51:24;19.00;77.40
17370;DHT22;8802;52.402;4.920;2022-07-06T02:53:51;19.00;77.10
17370;DHT22;8802;52.402;4.920;2022-07-06T02:56:18;19.00;77.20
17370;DHT22;8802;52.402;4.920;2022-07-06T02:58:45;18.90;77.60
17370;DHT22;8802;52.402;4.920;2022-07-06T03:01:11;18.90;77.60
17370;DHT22;8802;52.402;4.920;2022-07-06T03:03:40;19.00;77.60
17370;DHT22;8802;52.402;4.920;2022-07-06T03:06:07;19.00;77.40
17370;DHT22;8802;52.402;4.920;2022-07-06T03:08:33;19.00;77.70
17370;DHT22;8802;52.402;4.920;2022-07-06T03:11:01;19.00;77.60
17370;DHT22;8802;52.402;4.920;2022-07-06T03:13:28;19.00;77.70
17370;DHT22;8802;52.402;4.920;2022-07-06T03:15:55;19.00;77.70
17370;DHT22;8802;52.402;4.920;2022-07-06T03:18:22;19.00;77.30
17370;DHT22;8802;52.402;4.920;2022-07-06T03:20:50;19.00;77.70
17370;DHT22;8802;52.402;4.920;2022-07-06T03:23:17;19.00;77.30
17370;DHT22;8802;52.402;4.920;2022-07-06T03:25:44;19.00;77.40
17370;DHT22;8802;52.402;4.920;2022-07-06T03:28:11;19.00;77.50
17370;DHT22;8802;52.402;4.920;2022-07-06T03:30:38;19.00;77.40
17370;DHT22;8802;52.402;4.920;2022-07-06T03:33:05;19.10;77.40
17370;DHT22;8802;52.402;4.920;2022-07-06T03:35:32;19.10;77.50
17370;DHT22;8802;52.402;4.920;2022-07-06T03:38:00;19.10;77.30
17370;DHT22;8802;52.402;4.920;2022-07-06T03:40:28;19.10;77.20
17370;DHT22;8802;52.402;4.920;2022-07-06T03:42:55;19.10;77.40
17370;DHT22;8802;52.402;4.920;2022-07-06T03:45:21;19.10;77.60
17370;DHT22;8802;52.402;4.920;2022-07-06T03:47:48;19.10;77.70
17370;DHT22;8802;52.402;4.920;2022-07-06T03:50:15;19.10;77.90
17370;DHT22;8802;52.402;4.920;2022-07-06T03:52:42;19.10;78.00
17370;DHT22;8802;52.402;4.920;2022-07-06T03:55:11;19.10;77.70
17370;DHT22;8802;52.402;4.920;2022-07-06T03:57:38;19.20;77.60
17370;DHT22;8802;52.402;4.920;2022-07-06T04:00:07;19.20;78.00
17370;DHT22;8802;52.402;4.920;2022-07-06T04:02:34;19.20;77.80
17370;DHT22;8802;52.402;4.920;2022-07-06T04:05:01;19.20;78.30
17370;DHT22;8802;52.402;4.920;2022-07-06T04:07:28;19.20;78.20
17370;DHT22;8802;52.402;4.920;2022-07-06T04:09:54;19.20;78.20
17370;DHT22;8802;52.402;4.920;2022-07-06T04:12:23;19.20;78.40
17370;DHT22;8802;52.402;4.920;2022-07-06T04:14:49;19.20;78.30
17370;DHT22;8802;52.402;4.920;2022-07-06T04:17:16;19.20;78.30
17370;DHT22;8802;52.402;4.920;2022-07-06T04:20:00;19.20;78.50
17370;DHT22;8802;52.402;4.920;2022-07-06T04:22:27;19.30;78.30
17370;DHT22;8802;52.402;4.920;2022-07-06T04:24:54;19.30;78.50
17370;DHT22;8802;52.402;4.920;2022-07-06T04:27:22;19.30;78.50
17370;DHT22;8802;52.402;4.920;2022-07-06T04:29:49;19.30;78.20
17370;DHT22;8802;52.402;4.920;2022-07-06T04:32:16;19.30;78.50
17370;DHT22;8802;52.402;4.920;2022-07-06T04:34:42;19.30;78.50
17370;DHT22;8802;52.402;4.920;2022-07-06T04:37:09;19.40;78.50
17370;DHT22;8802;52.402;4.920;2022-07-06T04:39:36;19.40;78.40
17370;DHT22;8802;52.402;4.920;2022-07-06T04:42:03;19.40;78.50
17370;DHT22;8802;52.402;4.920;2022-07-06T04:44:31;19.40;78.40
17370;DHT22;8802;52.402;4.920;2022-07-06T04:46:58;19.40;79.20
17370;DHT22;8802;52.402;4.920;2022-07-06T04:49:25;19.40;78.40
17370;DHT22;8802;52.402;4.920;2022-07-06T04:51:52;19.40;78.40
17370;DHT22;8802;52.402;4.920;2022-07-06T04:54:19;19.40;78.40
17370;DHT22;8802;52.402;4.920;2022-07-06T04:56:46;19.50;78.70
17370;DHT22;8802;52.402;4.920;2022-07-06T04:59:13;19.50;78.40
17370;DHT22;8802;52.402;4.920;2022-07-06T05:01:41;19.50;78.80
17370;DHT22;8802;52.402;4.920;2022-07-06T05:04:08;19.50;78.70
17370;DHT22;8802;52.402;4.920;2022-07-06T05:06:35;19.50;78.30
17370;DHT22;8802;52.402;4.920;2022-07-06T05:09:02;19.50;78.40
17370;DHT22;8802;52.402;4.920;2022-07-06T05:11:29;19.50;78.50
17370;DHT22;8802;52.402;4.920;2022-07-06T05:13:56;19.50;78.20
17370;DHT22;8802;52.402;4.920;2022-07-06T05:16:23;19.50;77.90
17370;DHT22;8802;52.402;4.920;2022-07-06T05:18:52;19.50;77.80
17370;DHT22;8802;52.402;4.920;2022-07-06T05:21:18;19.60;77.70
17370;DHT22;8802;52.402;4.920;2022-07-06T05:23:45;19.50;77.80
17370;DHT22;8802;52.402;4.920;2022-07-06T05:26:12;19.50;77.70
17370;DHT22;8802;52.402;4.920;2022-07-06T05:28:39;19.50;77.60
17370;DHT22;8802;52.402;4.920;2022-07-06T05:31:06;19.50;77.40
17370;DHT22;8802;52.402;4.920;2022-07-06T05:33:33;19.50;77.20
17370;DHT22;8802;52.402;4.920;2022-07-06T05:36:01;19.60;77.40
17370;DHT22;8802;52.402;4.920;2022-07-06T05:38:28;19.60;77.10
17370;DHT22;8802;52.402;4.920;2022-07-06T05:40:55;19.60;76.90
17370;DHT22;8802;52.402;4.920;2022-07-06T05:43:21;19.60;77.60
17370;DHT22;8802;52.402;4.920;2022-07-06T05:45:48;19.60;75.90
17370;DHT22;8802;52.402;4.920;2022-07-06T05:48:15;19.60;76.20
17370;DHT22;8802;52.402;4.920;2022-07-06T05:51:01;19.60;76.40
17370;DHT22;8802;52.402;4.920;2022-07-06T05:53:29;19.60;76.20
17370;DHT22;8802;52.402;4.920;2022-07-06T05:55:56;19.70;76.40
17370;DHT22;8802;52.402;4.920;2022-07-06T05:58:23;19.60;75.90
17370;DHT22;8802;52.402;4.920;2022-07-06T06:00:50;19.60;76.30
17370;DHT22;8802;52.402;4.920;2022-07-06T06:03:17;19.60;76.20
17370;DHT22;8802;52.402;4.920;2022-07-06T06:05:44;19.60;75.80
17370;DHT22;8802;52.402;4.920;2022-07-06T06:08:12;19.60;76.20
17370;DHT22;8802;52.402;4.920;2022-07-06T06:10:39;19.60;76.10
17370;DHT22;8802;52.402;4.920;2022-07-06T06:13:06;19.60;76.20
17370;DHT22;8802;52.402;4.920;2022-07-06T06:15:34;19.60;75.50
17370;DHT22;8802;52.402;4.920;2022-07-06T06:18:01;19.70;75.70
17370;DHT22;8802;52.402;4.920;2022-07-06T06:20:29;19.70;75.50
17370;DHT22;8802;52.402;4.920;2022-07-06T06:22:57;19.70;75.10
17370;DHT22;8802;52.402;4.920;2022-07-06T06:25:30;19.80;75.30
17370;DHT22;8802;52.402;4.920;2022-07-06T06:27:57;19.80;75.40
17370;DHT22;8802;52.402;4.920;2022-07-06T06:30:24;19.90;75.10
17370;DHT22;8802;52.402;4.920;2022-07-06T06:32:51;19.90;74.40
17370;DHT22;8802;52.402;4.920;2022-07-06T06:35:18;20.00;74.60
17370;DHT22;8802;52.402;4.920;2022-07-06T06:37:45;20.00;74.40
17370;DHT22;8802;52.402;4.920;2022-07-06T06:40:12;20.10;74.10
17370;DHT22;8802;52.402;4.920;2022-07-06T06:42:40;20.20;73.90
17370;DHT22;8802;52.402;4.920;2022-07-06T06:45:08;20.20;73.90
17370;DHT22;8802;52.402;4.920;2022-07-06T06:47:35;20.30;74.10
17370;DHT22;8802;52.402;4.920;2022-07-06T06:50:02;20.30;73.90
17370;DHT22;8802;52.402;4.920;2022-07-06T06:52:29;20.40;73.40
17370;DHT22;8802;52.402;4.920;2022-07-06T06:54:56;20.40;73.30
17370;DHT22;8802;52.402;4.920;2022-07-06T06:57:23;20.50;73.30
17370;DHT22;8802;52.402;4.920;2022-07-06T06:59:51;20.60;72.80
17370;DHT22;8802;52.402;4.920;2022-07-06T07:02:18;20.60;72.80
17370;DHT22;8802;52.402;4.920;2022-07-06T07:04:44;20.70;72.10
17370;DHT22;8802;52.402;4.920;2022-07-06T07:07:11;20.70;71.90
17370;DHT22;8802;52.402;4.920;2022-07-06T07:09:38;20.80;72.00
17370;DHT22;8802;52.402;4.920;2022-07-06T07:12:05;20.80;72.10
17370;DHT22;8802;52.402;4.920;2022-07-06T07:14:32;20.80;71.60
17370;DHT22;8802;52.402;4.920;2022-07-06T07:17:00;20.90;71.50
17370;DHT22;8802;52.402;4.920;2022-07-06T07:19:27;20.90;71.50
17370;DHT22;8802;52.402;4.920;2022-07-06T07:21:54;21.00;71.60
17370;DHT22;8802;52.402;4.920;2022-07-06T07:24:21;21.00;71.10
17370;DHT22;8802;52.402;4.920;2022-07-06T07:26:48;21.10;70.90
17370;DHT22;8802;52.402;4.920;2022-07-06T07:29:14;21.20;71.00
17370;DHT22;8802;52.402;4.920;2022-07-06T07:31:41;21.20;71.10
17370;DHT22;8802;52.402;4.920;2022-07-06T07:34:09;21.30;70.00
17370;DHT22;8802;52.402;4.920;2022-07-06T07:36:36;21.40;70.20
17370;DHT22;8802;52.402;4.920;2022-07-06T07:39:03;21.40;70.10
17370;DHT22;8802;52.402;4.920;2022-07-06T07:41:30;21.40;70.00
17370;DHT22;8802;52.402;4.920;2022-07-06T07:43:57;21.50;70.30
17370;DHT22;8802;52.402;4.920;2022-07-06T07:46:24;21.50;70.20
17370;DHT22;8802;52.402;4.920;2022-07-06T07:48:51;21.60;70.70
17370;DHT22;8802;52.402;4.920;2022-07-06T07:51:19;21.60;69.00
17370;DHT22;8802;52.402;4.920;2022-07-06T07:53:46;21.60;69.80
17370;DHT22;8802;52.402;4.920;2022-07-06T07:56:13;21.60;68.90
17370;DHT22;8802;52.402;4.920;2022-07-06T07:58:40;21.60;69.00
17370;DHT22;8802;52.402;4.920;2022-07-06T08:01:06;21.60;68.30
17370;DHT22;8802;52.402;4.920;2022-07-06T08:03:33;21.60;68.20
17370;DHT22;8802;52.402;4.920;2022-07-06T08:06:00;21.70;68.10
17370;DHT22;8802;52.402;4.920;2022-07-06T08:08:28;21.70;67.90
17370;DHT22;8802;52.402;4.920;2022-07-06T08:10:55;21.70;67.60
17370;DHT22;8802;52.402;4.920;2022-07-06T08:13:22;21.70;67.30
17370;DHT22;8802;52.402;4.920;2022-07-06T08:15:49;21.80;67.10
17370;DHT22;8802;52.402;4.920;2022-07-06T08:18:15;21.80;67.10
17370;DHT22;8802;52.402;4.920;2022-07-06T08:20:42;21.90;67.30
17370;DHT22;8802;52.402;4.920;2022-07-06T08:23:09;21.90;68.20
17370;DHT22;8802;52.402;4.920;2022-07-06T08:25:37;21.90;67.10
17370;DHT22;8802;52.402;4.920;2022-07-06T08:28:04;22.00;67.40
17370;DHT22;8802;52.402;4.920;2022-07-06T08:30:31;22.00;66.10
17370;DHT22;8802;52.402;4.920;2022-07-06T08:33:00;22.00;66.20
17370;DHT22;8802;52.402;4.920;2022-07-06T08:35:27;22.10;65.90
17370;DHT22;8802;52.402;4.920;2022-07-06T08:37:54;22.10;64.50
17370;DHT22;8802;52.402;4.920;2022-07-06T08:40:20;22.10;64.20
17370;DHT22;8802;52.402;4.920;2022-07-06T08:42:53;22.20;64.50
17370;DHT22;8802;52.402;4.920;2022-07-06T08:45:21;22.20;63.30
17370;DHT22;8802;52.402;4.920;2022-07-06T08:47:49;22.30;64.20
17370;DHT22;8802;52.402;4.920;2022-07-06T08:50:16;22.30;63.20
17370;DHT22;8802;52.402;4.920;2022-07-06T08:52:43;22.40;63.70
17370;DHT22;8802;52.402;4.920;2022-07-06T08:55:10;22.40;63.20
17370;DHT22;8802;52.402;4.920;2022-07-06T08:57:38;22.50;63.40
17370;DHT22;8802;52.402;4.920;2022-07-06T09:00:08;22.50;62.10
17370;DHT22;8802;52.402;4.920;2022-07-06T09:02:36;22.60;61.00
17370;DHT22;8802;52.402;4.920;2022-07-06T09:05:04;22.60;61.40
17370;DHT22;8802;52.402;4.920;2022-07-06T09:07:30;22.70;61.30
17370;DHT22;8802;52.402;4.920;2022-07-06T09:09:59;22.70;61.30
17370;DHT22;8802;52.402;4.920;2022-07-06T09:12:27;22.80;60.60
17370;DHT22;8802;52.402;4.920;2022-07-06T09:14:54;22.80;60.90
17370;DHT22;8802;52.402;4.920;2022-07-06T09:17:25;22.90;60.40
17370;DHT22;8802;52.402;4.920;2022-07-06T09:19:52;22.90;59.90
17370;DHT22;8802;52.402;4.920;2022-07-06T09:22:27;22.90;59.90
17370;DHT22;8802;52.402;4.920;2022-07-06T09:25:02;23.00;60.00
17370;DHT22;8802;52.402;4.920;2022-07-06T09:27:29;23.00;59.30
17370;DHT22;8802;52.402;4.920;2022-07-06T09:29:59;23.10;59.80
17370;DHT22;8802;52.402;4.920;2022-07-06T09:32:27;23.10;59.30
17370;DHT22;8802;52.402;4.920;2022-07-06T09:34:54;23.10;59.40
17370;DHT22;8802;52.402;4.920;2022-07-06T09:37:22;23.10;58.90
17370;DHT22;8802;52.402;4.920;2022-07-06T09:39:49;23.10;58.90
17370;DHT22;8802;52.402;4.920;2022-07-06T09:42:16;23.10;58.60
17370;DHT22;8802;52.402;4.920;2022-07-06T09:44:50;23.20;58.70
17370;DHT22;8802;52.402;4.920;2022-07-06T09:47:18;23.20;59.10
17370;DHT22;8802;52.402;4.920;2022-07-06T09:49:47;23.30;58.70
17370;DHT22;8802;52.402;4.920;2022-07-06T09:52:14;23.30;57.80
17370;DHT22;8802;52.402;4.920;2022-07-06T09:54:41;23.40;58.30
17370;DHT22;8802;52.402;4.920;2022-07-06T09:57:08;23.50;58.10
17370;DHT22;8802;52.402;4.920;2022-07-06T09:59:35;23.60;57.20
17370;DHT22;8802;52.402;4.920;2022-07-06T10:02:04;23.60;57.10
17370;DHT22;8802;52.402;4.920;2022-07-06T10:04:32;23.70;56.90
17370;DHT22;8802;52.402;4.920;2022-07-06T10:07:01;23.80;57.40
17370;DHT22;8802;52.402;4.920;2022-07-06T10:09:28;23.90;57.50
17370;DHT22;8802;52.402;4.920;2022-07-06T10:11:57;24.00;57.10
17370;DHT22;8802;52.402;4.920;2022-07-06T10:14:27;24.10;56.20
17370;DHT22;8802;52.402;4.920;2022-07-06T10:16:55;24.20;56.50
17370;DHT22;8802;52.402;4.920;2022-07-06T10:19:23;24.30;56.20
17370;DHT22;8802;52.402;4.920;2022-07-06T10:21:50;24.40;56.00
17370;DHT22;8802;52.402;4.920;2022-07-06T10:24:20;24.50;55.80
17370;DHT22;8802;52.402;4.920;2022-07-06T10:26:47;24.60;55.80
17370;DHT22;8802;52.402;4.920;2022-07-06T10:29:14;24.70;55.50
17370;DHT22;8802;52.402;4.920;2022-07-06T10:31:44;24.80;55.00
17370;DHT22;8802;52.402;4.920;2022-07-06T10:34:13;24.90;55.30
17370;DHT22;8802;52.402;4.920;2022-07-06T10:36:42;25.00;55.00
17370;DHT22;8802;52.402;4.920;2022-07-06T10:39:10;25.10;54.80
17370;DHT22;8802;52.402;4.920;2022-07-06T10:41:56;25.20;54.40
17370;DHT22;8802;52.402;4.920;2022-07-06T10:44:24;25.40;53.90
17370;DHT22;8802;52.402;4.920;2022-07-06T10:46:52;25.50;53.80
17370;DHT22;8802;52.402;4.920;2022-07-06T10:49:20;25.60;53.30
17370;DHT22;8802;52.402;4.920;2022-07-06T10:51:47;25.70;53.20
17370;DHT22;8802;52.402;4.920;2022-07-06T10:54:16;25.70;53.90
17370;DHT22;8802;52.402;4.920;2022-07-06T10:56:45;25.90;53.40
17370;DHT22;8802;52.402;4.920;2022-07-06T10:59:15;26.00;53.60
17370;DHT22;8802;52.402;4.920;2022-07-06T11:02:12;26.10;53.40
17370;DHT22;8802;52.402;4.920;2022-07-06T11:04:39;26.20;53.40
17370;DHT22;8802;52.402;4.920;2022-07-06T11:07:10;26.30;52.50
17370;DHT22;8802;52.402;4.920;2022-07-06T11:09:37;26.40;52.80
17370;DHT22;8802;52.402;4.920;2022-07-06T11:12:25;26.60;51.90
17370;DHT22;8802;52.402;4.920;2022-07-06T11:14:54;26.70;51.80
17370;DHT22;8802;52.402;4.920;2022-07-06T11:17:21;26.80;51.70
17370;DHT22;8802;52.402;4.920;2022-07-06T11:19:49;26.80;51.80
17370;DHT22;8802;52.402;4.920;2022-07-06T11:22:17;27.00;52.00
17370;DHT22;8802;52.402;4.920;2022-07-06T11:24:45;27.00;51.10
17370;DHT22;8802;52.402;4.920;2022-07-06T11:27:13;27.20;51.30
17370;DHT22;8802;52.402;4.920;2022-07-06T11:29:40;27.20;50.90
17370;DHT22;8802;52.402;4.920;2022-07-06T11:32:09;27.40;50.70
17370;DHT22;8802;52.402;4.920;2022-07-06T11:34:38;27.40;50.20
17370;DHT22;8802;52.402;4.920;2022-07-06T11:37:07;27.50;50.70
17370;DHT22;8802;52.402;4.920;2022-07-06T11:39:35;27.50;50.50
17370;DHT22;8802;52.402;4.920;2022-07-06T11:42:05;27.60;50.60
17370;DHT22;8802;52.402;4.920;2022-07-06T11:44:33;27.80;50.20
17370;DHT22;8802;52.402;4.920;2022-07-06T11:47:00;27.80;49.90
17370;DHT22;8802;52.402;4.920;2022-07-06T11:49:30;27.90;48.90
17370;DHT22;8802;52.402;4.920;2022-07-06T11:51:58;27.90;49.00
17370;DHT22;8802;52.402;4.920;2022-07-06T11:54:25;28.00;47.90
17370;DHT22;8802;52.402;4.920;2022-07-06T11:56:53;28.00;48.50
17370;DHT22;8802;52.402;4.920;2022-07-06T11:59:22;28.10;48.70
17370;DHT22;8802;52.402;4.920;2022-07-06T12:01:49;28.10;48.90
17370;DHT22;8802;52.402;4.920;2022-07-06T12:04:17;28.20;48.10
17370;DHT22;8802;52.402;4.920;2022-07-06T12:06:45;28.30;48.00
17370;DHT22;8802;52.402;4.920;2022-07-06T12:09:12;28.30;47.70
17370;DHT22;8802;52.402;4.920;2022-07-06T12:11:40;28.40;47.30
17370;DHT22;8802;52.402;4.920;2022-07-06T12:14:16;28.40;47.50
17370;DHT22;8802;52.402;4.920;2022-07-06T12:16:44;28.50;47.00
17370;DHT22;8802;52.402;4.920;2022-07-06T12:19:11;28.50;46.80
17370;DHT22;8802;52.402;4.920;2022-07-06T12:21:42;28.60;47.90
17370;DHT22;8802;52.402;4.920;2022-07-06T12:24:17;28.70;47.40
17370;DHT22;8802;52.402;4.920;2022-07-06T12:26:44;28.70;47.00
17370;DHT22;8802;52.402;4.920;2022-07-06T12:29:12;28.70;46.70
17370;DHT22;8802;52.402;4.920;2022-07-06T12:31:42;28.70;47.20
17370;DHT22;8802;52.402;4.920;2022-07-06T12:34:13;28.70;46.90
17370;DHT22;8802;52.402;4.920;2022-07-06T12:36:45;28.70;46.30
17370;DHT22;8802;52.402;4.920;2022-07-06T12:39:14;28.60;46.30
17370;DHT22;8802;52.402;4.920;2022-07-06T12:41:46;28.60;46.20
17370;DHT22;8802;52.402;4.920;2022-07-06T12:44:13;28.50;46.80
17370;DHT22;8802;52.402;4.920;2022-07-06T12:46:41;28.50;46.80
17370;DHT22;8802;52.402;4.920;2022-07-06T12:49:14;28.40;46.20
17370;DHT22;8802;52.402;4.920;2022-07-06T12:51:59;28.40;46.00
17370;DHT22;8802;52.402;4.920;2022-07-06T12:54:30;28.30;46.70
17370;DHT22;8802;52.402;4.920;2022-07-06T12:57:05;28.20;46.70
17370;DHT22;8802;52.402;4.920;2022-07-06T12:59:37;28.10;46.70
17370;DHT22;8802;52.402;4.920;2022-07-06T13:02:05;28.00;47.10
17370;DHT22;8802;52.402;4.920;2022-07-06T13:04:35;27.90;46.70
17370;DHT22;8802;52.402;4.920;2022-07-06T13:07:03;27.80;47.00
17370;DHT22;8802;52.402;4.920;2022-07-06T13:09:32;27.70;47.10
17370;DHT22;8802;52.402;4.920;2022-07-06T13:11:58;27.60;47.60
17370;DHT22;8802;52.402;4.920;2022-07-06T13:14:25;27.50;47.70
17370;DHT22;8802;52.402;4.920;2022-07-06T13:16:53;27.40;48.10
17370;DHT22;8802;52.402;4.920;2022-07-06T13:19:20;27.30;48.50
17370;DHT22;8802;52.402;4.920;2022-07-06T13:21:47;27.30;48.40
17370;DHT22;8802;52.402;4.920;2022-07-06T13:24:14;27.20;48.60
17370;DHT22;8802;52.402;4.920;2022-07-06T13:26:42;27.10;48.80
17370;DHT22;8802;52.402;4.920;2022-07-06T13:29:10;27.00;48.80
17370;DHT22;8802;52.402;4.920;2022-07-06T13:31:37;26.90;49.40
17370;DHT22;8802;52.402;4.920;2022-07-06T13:34:06;26.80;49.80
17370;DHT22;8802;52.402;4.920;2022-07-06T13:36:32;26.80;49.90
17370;DHT22;8802;52.402;4.920;2022-07-06T13:38:59;26.70;50.00
17370;DHT22;8802;52.402;4.920;2022-07-06T13:41:26;26.60;50.40
17370;DHT22;8802;52.402;4.920;2022-07-06T13:43:54;26.60;50.70
17370;DHT22;8802;52.402;4.920;2022-07-06T13:46:21;26.50;51.00
17370;DHT22;8802;52.402;4.920;2022-07-06T13:48:48;26.40;51.40
17370;DHT22;8802;52.402;4.920;2022-07-06T13:51:15;26.30;51.70
17370;DHT22;8802;52.402;4.920;2022-07-06T13:53:42;26.20;51.80
17370;DHT22;8802;52.402;4.920;2022-07-06T13:56:09;26.20;52.40
17370;DHT22;8802;52.402;4.920;2022-07-06T13:58:36;26.00;52.60
17370;DHT22;8802;52.402;4.920;2022-07-06T14:01:04;26.00;53.20
17370;DHT22;8802;52.402;4.920;2022-07-06T14:03:31;26.00;53.80
17370;DHT22;8802;52.402;4.920;2022-07-06T14:05:59;25.90;54.10
17370;DHT22;8802;52.402;4.920;2022-07-06T14:08:27;25.90;54.40
17370;DHT22;8802;52.402;4.920;2022-07-06T14:10:54;25.80;54.90
17370;DHT22;8802;52.402;4.920;2022-07-06T14:13:22;25.80;55.10
17370;DHT22;8802;52.402;4.920;2022-07-06T14:15:49;25.70;55.50
17370;DHT22;8802;52.402;4.920;2022-07-06T14:18:17;25.70;55.80
17370;DHT22;8802;52.402;4.920;2022-07-06T14:20:44;25.60;56.50
17370;DHT22;8802;52.402;4.920;2022-07-06T14:23:11;25.60;57.00
17370;DHT22;8802;52.402;4.920;2022-07-06T14:25:39;25.50;57.60
17370;DHT22;8802;52.402;4.920;2022-07-06T14:28:06;25.50;58.20
17370;DHT22;8802;52.402;4.920;2022-07-06T14:30:34;25.40;58.60
17370;DHT22;8802;52.402;4.920;2022-07-06T14:33:02;25.30;58.90
17370;DHT22;8802;52.402;4.920;2022-07-06T14:35:34;25.30;59.50
17370;DHT22;8802;52.402;4.920;2022-07-06T14:38:01;25.30;59.70
17370;DHT22;8802;52.402;4.920;2022-07-06T14:40:28;25.20;59.80
17370;DHT22;8802;52.402;4.920;2022-07-06T14:42:55;25.10;60.40
17370;DHT22;8802;52.402;4.920;2022-07-06T14:45:22;25.10;60.00
17370;DHT22;8802;52.402;4.920;2022-07-06T14:47:49;25.00;59.80
17370;DHT22;8802;52.402;4.920;2022-07-06T14:50:17;25.00;59.70
17370;DHT22;8802;52.402;4.920;2022-07-06T14:52:45;24.90;59.30
17370;DHT22;8802;52.402;4.920;2022-07-06T14:55:13;24.90;59.90
17370;DHT22;8802;52.402;4.920;2022-07-06T14:57:40;24.90;60.10
17370;DHT22;8802;52.402;4.920;2022-07-06T15:00:08;24.80;60.50
17370;DHT22;8802;52.402;4.920;2022-07-06T15:02:35;24.80;61.00
17370;DHT22;8802;52.402;4.920;2022-07-06T15:05:03;24.80;61.20
17370;DHT22;8802;52.402;4.920;2022-07-06T15:07:30;24.70;61.40
17370;DHT22;8802;52.402;4.920;2022-07-06T15:09:58;24.70;62.20
17370;DHT22;8802;52.402;4.920;2022-07-06T15:12:25;24.60;62.20
17370;DHT22;8802;52.402;4.920;2022-07-06T15:14:52;24.60;60.80
17370;DHT22;8802;52.402;4.920;2022-07-06T15:17:18;24.60;60.40
17370;DHT22;8802;52.402;4.920;2022-07-06T15:19:45;24.50;60.00
17370;DHT22;8802;52.402;4.920;2022-07-06T15:22:12;24.50;59.30
17370;DHT22;8802;52.402;4.920;2022-07-06T15:24:39;24.50;59.40
17370;DHT22;8802;52.402;4.920;2022-07-06T15:27:07;24.40;59.60
17370;DHT22;8802;52.402;4.920;2022-07-06T15:29:34;24.40;59.30
17370;DHT22;8802;52.402;4.920;2022-07-06T15:32:01;24.30;59.40
17370;DHT22;8802;52.402;4.920;2022-07-06T15:34:28;24.30;59.70
17370;DHT22;8802;52.402;4.920;2022-07-06T15:36:56;24.30;60.00
17370;DHT22;8802;52.402;4.920;2022-07-06T15:39:23;24.20;60.20
17370;DHT22;8802;52.402;4.920;2022-07-06T15:41:50;24.20;60.00
17370;DHT22;8802;52.402;4.920;2022-07-06T15:44:18;24.10;60.20
17370;DHT22;8802;52.402;4.920;2022-07-06T15:46:45;24.10;61.30
17370;DHT22;8802;52.402;4.920;2022-07-06T15:49:14;24.00;62.50